Time;durP1;ratioP1;P1;durP2;ratioP2;P2;SDS_P1;SDS_P2;PMS_P1;PMS_P2;Temp;Humidity;BMP_temperature;BMP_pressure;BME280_temperature;BME280_humidity;BME280_pressure;Samples;Min_cycle;Max_cycle;Signal;HPM_P1;HPM_P2
2021/01/31 00:01:16;;;;;;;26.60;14.10;;;;;;;-4.06;96.59;99983.84;4981768;28;20074;-81
2021/01/31 00:03:43;;;;;;;32.50;14.15;;;;;;;-4.21;96.47;99991.72;4953742;28;20050;-79
2021/01/31 00:06:10;;;;;;;34.20;14.68;;;;;;;-4.38;97.16;99995.28;4991879;28;20082;-78
2021/01/31 00:08:42;;;;;;;28.35;14.90;;;;;;;-4.47;97.51;99989.38;4969966;28;20106;-79
2021/01/31 00:11:09;;;;;;;26.13;14.55;;;;;;;-4.53;97.57;99990.28;4986397;28;20058;-79
2021/01/31 00:13:36;;;;;;;31.75;15.95;;;;;;;-4.60;98.00;99991.16;4956046;28;20054;-79
2021/01/31 00:16:04;;;;;;;31.83;15.95;;;;;;;-4.65;98.52;99991.22;4966369;28;20073;-81
2021/01/31 00:18:31;;;;;;;32.42;14.93;;;;;;;-4.71;98.98;99991.25;4978529;28;20043;-80
2021/01/31 00:20:58;;;;;;;32.83;16.20;;;;;;;-4.64;99.51;99990.38;4963423;28;20057;-79
2021/01/31 00:23:26;;;;;;;34.03;15.02;;;;;;;-4.65;99.65;99992.94;4948220;28;20057;-79
2021/01/31 00:25:57;;;;;;;32.30;16.70;;;;;;;-4.68;99.23;99991.25;4966709;28;20197;-80
2021/01/31 00:28:26;;;;;;;30.17;15.65;;;;;;;-4.73;99.88;99986.97;4973871;28;20105;-80
2021/01/31 00:30:53;;;;;;;25.17;13.63;;;;;;;-4.75;99.71;99994.72;4980072;28;20058;-80
2021/01/31 00:33:26;;;;;;;30.48;14.57;;;;;;;-4.87;99.39;99999.91;4970545;28;20082;-80
2021/01/31 00:35:54;;;;;;;22.95;12.20;;;;;;;-4.72;99.74;99993.84;4970378;28;20613;-82
2021/01/31 00:38:23;;;;;;;29.75;13.25;;;;;;;-4.64;99.52;100002.31;4969898;28;20144;-79
2021/01/31 00:40:50;;;;;;;23.25;11.73;;;;;;;-4.46;98.22;99996.19;4972682;28;20106;-80
2021/01/31 00:43:18;;;;;;;18.70;10.27;;;;;;;-4.59;98.18;99998.88;4972554;28;20063;-80
2021/01/31 00:45:45;;;;;;;20.80;10.38;;;;;;;-4.76;98.02;100002.44;4953337;28;20109;-79
2021/01/31 00:48:14;;;;;;;22.48;10.48;;;;;;;-4.60;97.58;100004.88;4981544;28;20066;-77
2021/01/31 00:50:41;;;;;;;17.42;8.40;;;;;;;-4.80;97.81;100009.31;4978874;28;20103;-79
2021/01/31 00:53:09;;;;;;;24.38;9.30;;;;;;;-4.95;97.39;100009.41;4978174;28;20075;-80
2021/01/31 00:55:36;;;;;;;21.88;9.38;;;;;;;-5.05;97.62;100007.72;4959417;28;20051;-79
2021/01/31 00:58:03;;;;;;;21.17;9.18;;;;;;;-4.52;97.58;100007.38;4960768;28;20055;-78
2021/01/31 01:00:36;;;;;;;19.83;9.55;;;;;;;-4.01;95.11;100001.81;4974365;28;20074;-78
2021/01/31 01:03:04;;;;;;;20.98;9.68;;;;;;;-4.28;94.86;100006.31;4967427;28;20069;-80
2021/01/31 01:05:31;;;;;;;18.85;9.90;;;;;;;-4.43;95.23;100009.88;4956536;28;20047;-79
2021/01/31 01:07:58;;;;;;;20.80;10.27;;;;;;;-4.23;94.54;100014.88;4972067;28;20055;-80
2021/01/31 01:10:30;;;;;;;25.90;12.82;;;;;;;-4.12;94.76;100007.91;4969862;28;20085;-80
2021/01/31 01:13:00;;;;;;;21.95;11.00;;;;;;;-4.12;94.62;100012.19;4971575;28;20066;-79
2021/01/31 01:15:28;;;;;;;23.77;10.82;;;;;;;-4.13;93.90;100003.63;4978569;28;20038;-79
2021/01/31 01:17:59;;;;;;;22.95;11.70;;;;;;;-4.54;94.84;100003.13;4974209;28;20039;-80
2021/01/31 01:20:25;;;;;;;25.73;11.32;;;;;;;-4.66;95.96;99999.78;4984636;28;20050;-80
2021/01/31 01:22:53;;;;;;;24.67;11.90;;;;;;;-4.93;96.25;100005.94;4983351;28;20066;-80
2021/01/31 01:25:23;;;;;;;24.10;11.15;;;;;;;-4.66;97.41;100001.50;4964754;28;20042;-81
2021/01/31 01:27:50;;;;;;;26.90;11.50;;;;;;;-4.58;96.59;99999.72;4978469;28;20133;-78
2021/01/31 01:30:19;;;;;;;30.70;12.13;;;;;;;-4.92;96.79;99999.94;4983445;28;20058;-81
2021/01/31 01:32:56;;;;;;;25.98;12.30;;;;;;;-5.11;97.26;99999.22;4978665;28;20058;-80
2021/01/31 01:35:24;;;;;;;23.67;12.02;;;;;;;-5.13;98.40;100007.78;4967698;28;20090;-78
2021/01/31 01:37:51;;;;;;;28.00;12.93;;;;;;;-5.26;97.98;100006.16;4969473;28;20130;-80
2021/01/31 01:40:36;;;;;;;28.05;13.32;;;;;;;-4.59;98.39;99995.47;4981030;28;20050;-80
2021/01/31 01:43:04;;;;;;;24.10;12.02;;;;;;;-4.19;96.20;99992.53;4981889;28;20041;-79
2021/01/31 01:45:32;;;;;;;25.25;11.55;;;;;;;-4.16;95.04;99988.22;4973881;28;20421;-78
2021/01/31 01:48:05;;;;;;;23.05;11.23;;;;;;;-4.54;95.37;99983.44;4969572;28;20114;-79
2021/01/31 01:50:46;;;;;;;22.70;11.48;;;;;;;-4.84;95.96;99985.34;4970706;28;20065;-82
2021/01/31 01:53:14;;;;;;;24.15;11.40;;;;;;;-5.05;96.96;99989.75;4968216;28;20083;-80
2021/01/31 01:55:51;;;;;;;22.17;11.35;;;;;;;-5.23;97.38;99989.00;4970312;28;20054;-79
2021/01/31 01:58:20;;;;;;;27.92;11.57;;;;;;;-5.21;98.15;99986.44;4957214;28;20063;-81
2021/01/31 02:00:48;;;;;;;24.02;11.60;;;;;;;-5.15;98.31;99989.81;4974948;28;20062;-78
2021/01/31 02:03:33;;;;;;;25.98;12.63;;;;;;;-4.83;98.55;99991.34;4974421;28;20043;-82
2021/01/31 02:06:18;;;;;;;27.30;12.32;;;;;;;-5.09;98.20;99981.22;4994903;28;20082;-79
2021/01/31 02:08:46;;;;;;;22.42;10.93;;;;;;;-4.65;97.66;99985.22;4992515;28;20050;-79
2021/01/31 02:11:14;;;;;;;23.83;11.73;;;;;;;-4.72;96.72;99989.56;4975791;28;20059;-79
2021/01/31 02:13:43;;;;;;;23.13;10.98;;;;;;;-4.87;96.57;99985.38;4972298;28;20137;-78
2021/01/31 02:16:21;;;;;;;21.80;11.88;;;;;;;-4.54;97.06;99985.16;4960301;28;20565;-78
2021/01/31 02:19:07;;;;;;;22.30;10.45;;;;;;;-4.10;95.71;99988.19;4973473;28;20066;-77
2021/01/31 02:21:50;;;;;;;21.20;10.95;;;;;;;-4.14;94.87;99983.09;4983084;28;20057;-79
2021/01/31 02:24:55;;;;;;;23.40;10.32;;;;;;;-4.41;95.21;99989.34;4988394;28;20043;-78
2021/01/31 02:27:56;;;;;;;27.85;12.40;;;;;;;-4.82;96.13;99969.94;4991782;28;20047;-78
2021/01/31 02:30:55;;;;;;;21.60;10.90;;;;;;;-4.59;96.02;99980.91;4971949;28;20050;-80
2021/01/31 02:33:35;;;;;;;24.45;12.50;;;;;;;-4.98;96.41;99987.16;4985120;28;20154;-78
2021/01/31 02:36:09;;;;;;;23.35;11.55;;;;;;;-4.99;97.00;99988.03;4988157;28;20057;-80
2021/01/31 02:38:43;;;;;;;26.42;11.35;;;;;;;-4.46;95.90;99986.78;4972876;28;20046;-80
2021/01/31 02:41:16;;;;;;;25.02;11.90;;;;;;;-4.82;95.90;99987.91;4974805;28;20058;-81
2021/01/31 02:43:48;;;;;;;26.33;12.35;;;;;;;-5.06;96.84;99994.03;4955375;28;20063;-79
2021/01/31 02:46:31;;;;;;;34.30;14.25;;;;;;;-5.13;98.12;99995.81;4973177;28;20038;-79
2021/01/31 02:49:08;;;;;;;32.30;15.27;;;;;;;-5.10;98.10;99995.78;4968978;28;20058;-80
2021/01/31 02:51:43;;;;;;;28.10;12.75;;;;;;;-5.31;98.29;100003.59;4970616;28;20070;-79
2021/01/31 02:54:19;;;;;;;26.92;13.48;;;;;;;-5.11;98.82;99998.34;4947221;28;20138;-80
2021/01/31 02:57:01;;;;;;;30.83;13.00;;;;;;;-4.64;97.02;100000.63;4965947;28;20063;-79
2021/01/31 02:59:40;;;;;;;23.40;12.20;;;;;;;-4.61;97.37;99992.03;4963892;28;20089;-79
2021/01/31 03:02:13;;;;;;;28.30;12.43;;;;;;;-4.74;96.62;99986.13;4968422;28;20066;-80
2021/01/31 03:04:45;;;;;;;27.35;13.15;;;;;;;-5.01;97.51;99987.16;4969664;28;20074;-79
2021/01/31 03:07:16;;;;;;;28.08;13.13;;;;;;;-5.27;97.55;99989.88;4977408;28;20078;-80
2021/01/31 03:09:59;;;;;;;27.63;13.68;;;;;;;-5.42;98.28;99995.09;4976562;28;20166;-78
2021/01/31 03:12:34;;;;;;;29.92;14.23;;;;;;;-5.56;98.50;99996.84;4981677;28;20062;-79
2021/01/31 03:15:06;;;;;;;33.72;15.20;;;;;;;-5.70;99.00;99994.34;4981591;28;20142;-78
2021/01/31 03:17:39;;;;;;;34.08;15.32;;;;;;;-5.69;99.36;99991.75;4983655;28;20043;-78
2021/01/31 03:20:12;;;;;;;33.45;16.02;;;;;;;-5.71;99.91;99995.19;4979999;28;20046;-81
2021/01/31 03:22:59;;;;;;;30.23;14.75;;;;;;;-5.82;99.82;99991.81;4997495;28;20286;-80
2021/01/31 03:25:40;;;;;;;31.90;15.18;;;;;;;-5.78;100.00;99993.50;4985665;28;20157;-78
2021/01/31 03:28:07;;;;;;;33.35;16.13;;;;;;;-5.89;100.00;100004.66;4993011;28;20035;-77
2021/01/31 03:30:34;;;;;;;31.77;15.75;;;;;;;-5.97;100.00;100002.97;4994666;28;20039;-78
2021/01/31 03:33:06;;;;;;;35.50;16.48;;;;;;;-6.01;100.00;100006.41;4987118;28;20039;-79
2021/01/31 03:35:33;;;;;;;31.80;16.70;;;;;;;-5.90;100.00;100009.75;4993679;28;20073;-79
2021/01/31 03:38:05;;;;;;;32.58;15.50;;;;;;;-6.03;100.00;100010.66;4968691;28;20581;-78
2021/01/31 03:40:32;;;;;;;33.97;16.50;;;;;;;-6.13;100.00;100015.78;4971385;28;20035;-79
2021/01/31 03:42:59;;;;;;;32.35;16.10;;;;;;;-6.19;100.00;100015.81;4983277;28;20474;-80
2021/01/31 03:45:31;;;;;;;33.88;16.35;;;;;;;-6.19;100.00;100020.94;4965744;28;20114;-79
2021/01/31 03:48:21;;;;;;;28.67;15.88;;;;;;;-6.23;100.00;100014.09;4970776;28;20099;-78
2021/01/31 03:50:48;;;;;;;36.88;16.48;;;;;;;-6.23;100.00;100015.81;4941562;28;20065;-79
2021/01/31 03:53:16;;;;;;;36.97;16.63;;;;;;;-6.24;100.00;100017.53;4967466;28;20137;-79
2021/01/31 03:55:44;;;;;;;36.53;17.08;;;;;;;-6.20;100.00;100018.38;4976962;28;20054;-79
2021/01/31 03:58:13;;;;;;;36.75;17.13;;;;;;;-6.27;100.00;100020.09;4983727;28;20051;-80
2021/01/31 04:00:47;;;;;;;39.40;16.95;;;;;;;-5.90;100.00;100018.31;4982808;28;20082;-80
2021/01/31 04:03:31;;;;;;;31.88;15.80;;;;;;;-6.14;100.00;100021.78;4984592;28;20042;-79
2021/01/31 04:06:03;;;;;;;39.63;17.33;;;;;;;-6.27;100.00;100022.66;4975938;28;20057;-80
2021/01/31 04:08:31;;;;;;;39.67;17.77;;;;;;;-6.31;100.00;100017.53;4964365;28;20047;-78
2021/01/31 04:10:59;;;;;;;39.65;17.95;;;;;;;-6.34;100.00;100014.97;4965107;28;20055;-79
2021/01/31 04:13:29;;;;;;;37.63;18.17;;;;;;;-6.40;100.00;100023.50;4976700;28;20537;-83
2021/01/31 04:15:58;;;;;;;42.97;17.45;;;;;;;-6.45;100.00;100017.53;4966119;28;20047;-79
2021/01/31 04:18:26;;;;;;;42.58;18.80;;;;;;;-6.35;100.00;100008.13;4960640;28;20050;-80
2021/01/31 04:20:53;;;;;;;43.17;18.35;;;;;;;-6.45;100.00;100004.72;4962170;28;20178;-81
2021/01/31 04:23:23;;;;;;;35.42;17.23;;;;;;;-6.56;100.00;100004.72;4974384;28;20395;-80
2021/01/31 04:25:51;;;;;;;32.63;15.57;;;;;;;-6.63;100.00;100001.28;4982591;28;20082;-79
2021/01/31 04:28:21;;;;;;;39.45;17.58;;;;;;;-6.64;100.00;99997.03;4943891;28;20101;-80
2021/01/31 04:30:56;;;;;;;42.28;17.38;;;;;;;-6.66;100.00;99997.91;4973747;28;20082;-83
2021/01/31 04:33:25;;;;;;;36.38;17.40;;;;;;;-5.89;100.00;99994.38;4973847;28;20050;-78
2021/01/31 04:35:53;;;;;;;42.78;17.02;;;;;;;-5.84;100.00;100001.22;4982352;28;20720;-80
2021/01/31 04:38:21;;;;;;;37.03;17.38;;;;;;;-5.62;98.98;99998.59;4979732;28;20258;-80
2021/01/31 04:40:47;;;;;;;37.22;16.25;;;;;;;-5.97;99.74;99996.16;4982115;28;20106;-79
2021/01/31 04:43:17;;;;;;;35.38;15.52;;;;;;;-6.27;99.83;100004.72;4983031;28;20456;-80
2021/01/31 04:45:44;;;;;;;31.08;14.65;;;;;;;-6.45;99.84;99995.34;4962342;28;20094;-79
2021/01/31 04:48:25;;;;;;;36.55;15.65;;;;;;;-6.53;99.76;100001.31;4973500;28;20447;-80
2021/01/31 04:51:02;;;;;;;36.60;16.30;;;;;;;-6.63;100.00;100003.84;4972511;28;20058;-78
2021/01/31 04:54:02;;;;;;;32.58;15.55;;;;;;;-6.65;99.94;100003.03;4969375;28;20378;-81
2021/01/31 04:56:43;;;;;;;38.88;15.73;;;;;;;-6.64;100.00;100002.16;4958773;28;20051;-81
2021/01/31 04:59:22;;;;;;;33.28;15.05;;;;;;;-6.43;100.00;100003.03;4954269;28;20061;-78
2021/01/31 05:01:51;;;;;;;39.63;14.65;;;;;;;-6.40;100.00;100000.44;4954286;28;20147;-80
2021/01/31 05:04:18;;;;;;;33.22;14.93;;;;;;;-6.18;99.81;100002.16;4968929;28;20062;-80
2021/01/31 05:06:50;;;;;;;35.92;14.93;;;;;;;-6.13;98.92;100000.41;4974006;28;20954;-79
2021/01/31 05:09:25;;;;;;;30.75;14.23;;;;;;;-6.45;99.30;100007.28;4976612;28;20069;-77
2021/01/31 05:12:09;;;;;;;29.77;14.07;;;;;;;-6.68;99.83;100010.69;4972953;28;20062;-81
2021/01/31 05:14:55;;;;;;;36.47;15.57;;;;;;;-6.60;100.00;100002.16;4972337;28;20039;-81
2021/01/31 05:17:22;;;;;;;35.85;14.55;;;;;;;-5.74;98.89;100008.88;4976101;28;20066;-79
2021/01/31 05:19:50;;;;;;;29.48;12.82;;;;;;;-5.90;97.69;100004.63;4971578;28;20055;-80
2021/01/31 05:22:20;;;;;;;32.80;14.18;;;;;;;-5.83;98.01;100008.03;4984289;28;20061;-80
2021/01/31 05:24:47;;;;;;;30.33;13.43;;;;;;;-6.25;98.16;100013.25;4991549;28;20039;-79
2021/01/31 05:27:17;;;;;;;28.65;12.60;;;;;;;-6.52;98.23;100010.72;4970376;28;20055;-78
2021/01/31 05:29:44;;;;;;;28.95;13.38;;;;;;;-6.68;98.91;100007.28;4960463;28;20053;-77
2021/01/31 05:32:17;;;;;;;32.78;13.85;;;;;;;-6.80;98.77;100013.22;4977099;28;20055;-79
2021/01/31 05:34:47;;;;;;;34.40;14.68;;;;;;;-6.83;99.70;100026.03;4977073;28;20058;-78
2021/01/31 05:37:22;;;;;;;32.53;14.20;;;;;;;-6.45;99.83;100028.63;4983330;28;20125;-79
2021/01/31 05:40:08;;;;;;;31.77;14.47;;;;;;;-6.16;98.71;100023.50;4979843;28;20157;-79
2021/01/31 05:42:40;;;;;;;28.13;13.38;;;;;;;-6.22;98.35;100025.19;4951239;28;20145;-80
2021/01/31 05:45:13;;;;;;;27.45;12.63;;;;;;;-6.56;98.09;100025.22;4965776;28;20160;-78
2021/01/31 05:47:43;;;;;;;29.73;14.23;;;;;;;-6.79;98.29;100030.31;4968821;28;20145;-78
2021/01/31 05:50:30;;;;;;;32.55;13.35;;;;;;;-6.86;99.48;100031.13;4963528;28;20075;-78
2021/01/31 05:52:57;;;;;;;31.10;13.25;;;;;;;-6.97;99.68;100028.56;4965877;28;20125;-80
2021/01/31 05:55:28;;;;;;;33.17;13.98;;;;;;;-6.95;99.30;100036.22;4962043;28;20051;-80
2021/01/31 05:58:24;;;;;;;29.42;13.25;;;;;;;-7.10;99.78;100041.31;4993067;28;20057;-78
2021/01/31 06:01:04;;;;;;;28.52;13.02;;;;;;;-7.10;99.80;100041.31;4973705;28;20047;-78
2021/01/31 06:03:31;;;;;;;32.45;13.80;;;;;;;-7.15;100.00;100043.88;4965834;28;20061;-80
2021/01/31 06:06:15;;;;;;;31.60;13.05;;;;;;;-7.16;100.00;100047.25;4969185;28;20070;-78
2021/01/31 06:08:45;;;;;;;30.15;12.90;;;;;;;-6.72;99.97;100043.97;4950393;28;20054;-81
2021/01/31 06:11:29;;;;;;;24.52;11.75;;;;;;;-6.96;99.39;100050.72;4969388;28;20045;-78
2021/01/31 06:14:09;;;;;;;29.65;12.75;;;;;;;-7.16;99.59;100053.25;4966627;28;20054;-79
2021/01/31 06:16:37;;;;;;;27.77;10.82;;;;;;;-7.33;99.60;100048.91;4971778;28;20046;-78
2021/01/31 06:19:09;;;;;;;33.25;12.15;;;;;;;-7.38;99.86;100056.56;4973778;28;20086;-80
2021/01/31 06:21:39;;;;;;;28.42;11.82;;;;;;;-6.69;99.37;100059.31;4975807;28;20047;-79
2021/01/31 06:24:24;;;;;;;25.25;11.73;;;;;;;-6.35;98.11;100059.34;4973344;28;20062;-80
2021/01/31 06:26:52;;;;;;;24.70;10.73;;;;;;;-6.04;95.68;100055.09;4967905;28;20053;-80
2021/01/31 06:29:56;;;;;;;26.27;11.30;;;;;;;-6.04;95.19;100061.06;4964677;28;20061;-80
2021/01/31 06:32:28;;;;;;;21.65;9.88;;;;;;;-5.91;94.44;100064.44;4986140;28;20058;-80
2021/01/31 06:35:00;;;;;;;21.15;10.35;;;;;;;-5.83;94.16;100065.28;4965724;28;20598;-79
2021/01/31 06:37:42;;;;;;;17.48;8.68;;;;;;;-6.02;92.68;100061.94;4976815;28;20042;-81
2021/01/31 06:40:37;;;;;;;16.15;8.60;;;;;;;-6.10;93.48;100063.63;4976619;28;20134;-81
2021/01/31 06:43:20;;;;;;;19.75;9.77;;;;;;;-6.42;94.16;100077.28;4990482;28;20061;-79
2021/01/31 06:46:06;;;;;;;24.33;10.73;;;;;;;-6.20;94.14;100064.50;5001310;28;20039;-79
2021/01/31 06:48:46;;;;;;;19.90;9.27;;;;;;;-6.26;93.29;100059.34;4976642;28;20046;-78
2021/01/31 06:51:23;;;;;;;16.88;8.80;;;;;;;-6.57;94.24;100064.47;4973960;28;20141;-81
2021/01/31 06:53:56;;;;;;;17.95;8.70;;;;;;;-6.73;94.34;100068.69;4975082;28;20070;-79
2021/01/31 06:56:46;;;;;;;19.85;9.30;;;;;;;-6.92;94.84;100078.03;4960120;28;20077;-78
2021/01/31 06:59:35;;;;;;;19.40;9.65;;;;;;;-7.10;96.01;100084.81;4977421;28;20644;-79
2021/01/31 07:02:35;;;;;;;24.10;10.18;;;;;;;-7.06;96.54;100082.25;4975108;28;20078;-80
2021/01/31 07:05:15;;;;;;;22.25;10.00;;;;;;;-6.35;94.75;100070.44;4976469;28;20051;-83
2021/01/31 07:08:20;;;;;;;18.65;9.10;;;;;;;-6.53;94.15;100083.22;4963247;28;20043;-78
2021/01/31 07:11:02;;;;;;;18.00;8.55;;;;;;;-6.79;94.76;100088.31;4982747;28;20034;-81
2021/01/31 07:14:14;;;;;;;20.55;9.00;;;;;;;-6.77;95.15;100090.00;4988267;28;20038;-78
2021/01/31 07:16:49;;;;;;;22.58;10.13;;;;;;;-6.63;93.96;100084.94;4986813;28;20035;-80
2021/01/31 07:19:38;;;;;;;22.25;9.57;;;;;;;-6.94;94.39;100089.97;4989727;28;20047;-80
2021/01/31 07:22:11;;;;;;;18.92;9.77;;;;;;;-6.97;95.38;100089.13;4992040;28;20110;-80
2021/01/31 07:24:42;;;;;;;18.77;9.05;;;;;;;-7.02;95.96;100095.94;4987569;28;20062;-79
2021/01/31 07:27:18;;;;;;;20.63;8.82;;;;;;;-6.91;95.82;100094.25;5004970;28;20047;-80
2021/01/31 07:30:12;;;;;;;17.85;8.70;;;;;;;-6.64;94.81;100099.44;4995686;28;20097;-78
2021/01/31 07:33:01;;;;;;;19.50;8.43;;;;;;;-6.02;93.75;100090.13;4989157;28;20054;-79
2021/01/31 07:35:32;;;;;;;20.63;9.98;;;;;;;-5.93;92.06;100086.69;4995178;28;20057;-80
2021/01/31 07:38:08;;;;;;;18.85;9.00;;;;;;;-5.51;91.01;100098.56;4975879;28;20046;-81
2021/01/31 07:40:36;;;;;;;18.60;8.98;;;;;;;-5.80;89.73;100090.94;4966348;28;20059;-80
2021/01/31 07:43:04;;;;;;;20.08;8.90;;;;;;;-5.69;90.54;100093.47;4962079;28;20113;-79
2021/01/31 07:45:31;;;;;;;20.55;10.27;;;;;;;-5.58;89.78;100089.19;4955410;28;20078;-79
2021/01/31 07:48:31;;;;;;;23.73;9.40;;;;;;;-5.80;90.56;100090.94;4966154;28;20080;-79
2021/01/31 07:51:00;;;;;;;20.92;9.35;;;;;;;-5.66;90.25;100088.34;4972660;28;20102;-81
2021/01/31 07:53:32;;;;;;;19.02;9.20;;;;;;;-5.68;89.87;100083.19;4989089;28;20062;-80
2021/01/31 07:56:32;;;;;;;25.08;10.13;;;;;;;-5.63;89.86;100084.06;4986695;28;20055;-80
2021/01/31 07:59:19;;;;;;;19.77;9.73;;;;;;;-5.90;89.68;100090.09;4965635;28;20108;-78
2021/01/31 08:01:47;;;;;;;20.15;9.40;;;;;;;-5.77;90.68;100096.03;4971992;28;20534;-80
2021/01/31 08:04:15;;;;;;;20.10;8.73;;;;;;;-5.78;90.22;100091.75;4974964;28;20138;-81
2021/01/31 08:06:49;;;;;;;21.52;9.18;;;;;;;-5.50;89.55;100094.28;4991314;28;20976;-79
2021/01/31 08:09:26;;;;;;;18.80;8.80;;;;;;;-5.40;88.85;100095.97;4968094;28;20059;-79
2021/01/31 08:12:00;;;;;;;17.38;8.23;;;;;;;-4.53;87.11;100089.59;4971348;28;20327;-81
2021/01/31 08:15:05;;;;;;;18.08;8.68;;;;;;;-2.06;75.40;100081.69;4966982;28;20532;-80
2021/01/31 08:17:53;;;;;;;15.02;6.95;;;;;;;0.53;67.36;100075.28;4968633;28;20046;-79
2021/01/31 08:20:41;;;;;;;16.45;8.15;;;;;;;1.24;62.64;100077.63;4968392;28;20055;-78
2021/01/31 08:23:11;;;;;;;17.90;7.82;;;;;;;2.01;59.69;100076.09;4969383;28;20057;-79
2021/01/31 08:25:58;;;;;;;18.30;8.02;;;;;;;2.78;56.78;100082.13;4980026;28;20051;-80
2021/01/31 08:28:33;;;;;;;15.02;8.07;;;;;;;3.20;53.94;100082.31;4957750;28;20043;-82
2021/01/31 08:31:10;;;;;;;15.60;7.72;;;;;;;3.27;56.15;100088.13;4973525;28;20055;-80
2021/01/31 08:33:38;;;;;;;16.50;9.65;;;;;;;4.23;50.86;100073.91;4967639;28;20868;-80
2021/01/31 08:36:30;;;;;;;15.45;9.30;;;;;;;3.86;52.37;100074.56;4969094;28;20165;-78
2021/01/31 08:38:58;;;;;;;12.57;7.45;;;;;;;3.71;52.31;100081.22;4959296;28;20781;-79
2021/01/31 08:41:25;;;;;;;16.88;8.93;;;;;;;3.41;53.98;100082.41;4967180;28;21014;-80
2021/01/31 08:43:58;;;;;;;17.20;9.50;;;;;;;3.53;52.51;100093.19;4986177;28;20046;-81
2021/01/31 08:46:28;;;;;;;18.25;9.07;;;;;;;3.61;52.03;100086.88;4967801;28;20104;-81
2021/01/31 08:48:57;;;;;;;15.23;8.80;;;;;;;3.59;51.58;100089.50;4962961;28;20061;-81
2021/01/31 08:51:32;;;;;;;17.27;9.23;;;;;;;3.37;51.99;100086.88;4963370;28;20133;-79
2021/01/31 08:54:10;;;;;;;16.30;8.30;;;;;;;3.47;51.74;100090.00;4943326;28;20085;-78
2021/01/31 08:56:45;;;;;;;20.50;9.50;;;;;;;3.93;50.94;100089.03;4963557;28;20294;-78
2021/01/31 08:59:22;;;;;;;25.13;11.18;;;;;;;3.93;50.88;100096.00;4962397;28;20088;-78
2021/01/31 09:01:52;;;;;;;15.27;9.02;;;;;;;4.05;50.37;100091.16;4950115;28;20057;-79
2021/01/31 09:04:20;;;;;;;14.02;8.52;;;;;;;4.35;49.86;100089.94;4961113;28;20094;-79
2021/01/31 09:06:50;;;;;;;15.65;8.45;;;;;;;3.88;51.25;100090.97;4950921;28;20055;-79
2021/01/31 09:09:31;;;;;;;17.30;8.95;;;;;;;4.29;49.60;100091.03;4968235;28;20073;-80
2021/01/31 09:12:11;;;;;;;19.35;8.70;;;;;;;4.51;48.91;100093.59;4987168;28;20055;-78
2021/01/31 09:14:40;;;;;;;15.00;8.35;;;;;;;5.48;45.82;100088.38;4997826;28;20043;-79
2021/01/31 09:17:25;;;;;;;13.00;7.72;;;;;;;4.26;49.29;100092.00;4993210;28;20051;-80
2021/01/31 09:20:26;;;;;;;14.48;8.10;;;;;;;2.99;52.95;100096.09;4978967;28;20043;-80
2021/01/31 09:22:59;;;;;;;16.35;9.15;;;;;;;0.37;60.93;100106.78;4956321;28;20058;-80
2021/01/31 09:25:27;;;;;;;16.98;9.00;;;;;;;-0.93;69.31;100112.34;4983060;28;20046;-80
2021/01/31 09:28:00;;;;;;;17.10;8.50;;;;;;;-1.52;72.26;100113.47;4985618;28;20058;-78
2021/01/31 09:30:28;;;;;;;22.02;9.88;;;;;;;-1.87;74.89;100107.19;4988844;28;20064;-78
2021/01/31 09:33:04;;;;;;;17.92;9.48;;;;;;;-1.91;73.30;100114.09;4971445;28;20093;-78
2021/01/31 09:35:35;;;;;;;19.17;9.85;;;;;;;-2.17;75.36;100111.94;4992844;28;20113;-80
2021/01/31 09:38:18;;;;;;;16.70;9.00;;;;;;;-1.94;75.76;100103.84;4981671;28;20037;-77
2021/01/31 09:40:45;;;;;;;21.23;9.82;;;;;;;-2.04;74.24;100104.88;4982455;28;20115;-79
2021/01/31 09:43:28;;;;;;;18.90;10.25;;;;;;;-2.05;74.23;100103.16;4983958;28;20053;-77
2021/01/31 09:46:02;;;;;;;20.50;10.52;;;;;;;-1.99;73.77;100110.78;4994203;28;20047;-78
2021/01/31 09:48:32;;;;;;;20.77;10.45;;;;;;;-2.00;73.17;100113.41;4994879;28;20062;-79
2021/01/31 09:51:22;;;;;;;21.98;11.20;;;;;;;-2.08;74.21;100116.94;4978874;28;20407;-78
2021/01/31 09:53:49;;;;;;;19.52;9.75;;;;;;;-2.04;74.76;100110.88;4963502;28;20054;-79
2021/01/31 09:56:43;;;;;;;14.82;8.30;;;;;;;-2.05;74.21;100116.91;4978736;28;20074;-76
2021/01/31 09:59:17;;;;;;;18.73;9.23;;;;;;;-1.82;73.37;100121.69;4969113;28;20051;-78
2021/01/31 10:01:44;;;;;;;18.30;9.55;;;;;;;-1.98;74.33;100111.66;4974809;28;20138;-78
2021/01/31 10:04:23;;;;;;;21.23;10.32;;;;;;;-2.07;74.75;100107.50;4967672;28;20051;-77
2021/01/31 10:06:59;;;;;;;22.15;9.88;;;;;;;-2.05;75.06;100109.19;4978842;28;20536;-81
2021/01/31 10:09:29;;;;;;;17.45;8.85;;;;;;;-1.77;74.97;100113.88;4994136;28;20059;-79
2021/01/31 10:12:29;;;;;;;21.15;9.25;;;;;;;-1.63;74.96;100108.47;4964924;28;20098;-80
2021/01/31 10:15:02;;;;;;;16.50;8.18;;;;;;;-1.41;74.26;100106.38;4970636;28;20182;-79
2021/01/31 10:17:29;;;;;;;16.35;8.45;;;;;;;-1.70;74.26;100112.06;4974083;28;20454;-79
2021/01/31 10:20:34;;;;;;;19.50;8.13;;;;;;;-1.61;73.09;100106.75;4967797;28;20061;-79
2021/01/31 10:23:07;;;;;;;14.27;8.18;;;;;;;-1.66;73.75;100105.97;4988441;28;20110;-80
2021/01/31 10:25:36;;;;;;;16.20;7.88;;;;;;;-1.60;73.64;100109.28;4970743;28;20138;-80
2021/01/31 10:28:05;;;;;;;14.95;7.72;;;;;;;-1.50;72.73;100103.97;4972701;28;20088;-80
2021/01/31 10:30:42;;;;;;;13.05;8.15;;;;;;;-1.61;73.68;100099.84;4957525;28;20039;-78
2021/01/31 10:33:42;;;;;;;13.60;7.63;;;;;;;-1.38;72.50;100101.16;4980963;28;20062;-79
2021/01/31 10:36:25;;;;;;;13.82;7.75;;;;;;;-1.30;72.29;100097.56;4970316;28;20033;-81
2021/01/31 10:38:55;;;;;;;14.65;6.63;;;;;;;-1.32;71.80;100095.88;4994255;28;20078;-76
2021/01/31 10:41:23;;;;;;;12.60;6.97;;;;;;;-1.20;71.60;100095.66;4970790;28;20065;-78
2021/01/31 10:44:01;;;;;;;16.08;8.40;;;;;;;-1.08;72.04;100092.84;4992274;28;20063;-76
2021/01/31 10:46:29;;;;;;;13.10;7.60;;;;;;;-1.04;72.23;100096.19;4975680;28;20055;-76
2021/01/31 10:48:56;;;;;;;15.63;6.18;;;;;;;-0.89;70.41;100097.63;4975164;28;20050;-78
2021/01/31 10:51:25;;;;;;;8.93;5.20;;;;;;;-0.87;70.41;100095.84;4973571;28;20142;-77
2021/01/31 10:53:52;;;;;;;10.18;6.10;;;;;;;-0.84;68.83;100098.38;4960426;28;20062;-79
2021/01/31 10:56:18;;;;;;;10.30;5.65;;;;;;;-0.72;69.20;100092.97;4973092;28;20171;-79
2021/01/31 10:58:45;;;;;;;9.85;6.05;;;;;;;-0.77;69.52;100089.59;4971656;28;20046;-77
2021/01/31 11:01:14;;;;;;;8.68;6.10;;;;;;;-0.81;68.18;100082.78;4967912;28;20070;-79
2021/01/31 11:03:41;;;;;;;10.05;5.47;;;;;;;-0.76;68.83;100086.16;4988722;28;20115;-79
2021/01/31 11:06:08;;;;;;;10.00;6.13;;;;;;;-0.95;68.08;100087.41;4969309;28;20089;-78
2021/01/31 11:08:35;;;;;;;11.27;6.28;;;;;;;-0.99;68.22;100091.81;4973109;28;20055;-78
2021/01/31 11:11:02;;;;;;;11.18;5.95;;;;;;;-1.00;68.19;100081.47;4986608;28;20085;-76
2021/01/31 11:13:31;;;;;;;8.98;5.75;;;;;;;-0.77;67.99;100082.72;4982256;28;20961;-79
2021/01/31 11:15:59;;;;;;;10.10;6.10;;;;;;;-0.77;67.15;100076.69;5001124;28;20061;-79
2021/01/31 11:18:26;;;;;;;7.20;5.28;;;;;;;-0.88;67.17;100079.50;4988692;28;20077;-78
2021/01/31 11:20:53;;;;;;;10.95;5.22;;;;;;;-1.05;67.72;100081.56;4984868;28;20038;-78
2021/01/31 11:23:20;;;;;;;10.43;5.88;;;;;;;-1.18;68.53;100078.38;4975092;28;21421;-77
2021/01/31 11:25:47;;;;;;;8.40;4.85;;;;;;;-0.97;68.62;100076.25;4974042;28;20054;-77
2021/01/31 11:28:17;;;;;;;10.45;6.28;;;;;;;-0.98;68.09;100077.16;4975035;28;20121;-79
2021/01/31 11:30:45;;;;;;;9.38;5.57;;;;;;;-1.17;69.43;100072.34;4972026;28;20046;-76
2021/01/31 11:33:12;;;;;;;10.88;5.95;;;;;;;-0.94;67.15;100069.31;4973472;28;20138;-77
2021/01/31 11:35:40;;;;;;;11.13;5.45;;;;;;;-0.89;66.75;100067.47;4982539;28;20055;-79
2021/01/31 11:38:07;;;;;;;9.07;5.72;;;;;;;-0.86;66.93;100066.53;4977865;28;20057;-77
2021/01/31 11:40:34;;;;;;;9.98;6.18;;;;;;;-0.70;66.99;100065.34;4963036;28;20043;-75
2021/01/31 11:43:01;;;;;;;9.60;5.28;;;;;;;-0.85;65.89;100063.09;4986011;28;20055;-79
2021/01/31 11:45:28;;;;;;;8.80;5.57;;;;;;;-0.97;65.90;100065.91;4991375;28;20039;-76
2021/01/31 11:47:56;;;;;;;10.57;5.97;;;;;;;-0.86;66.70;100064.78;4990683;28;20043;-76